sensor_id;sensor_type;location;lat;lon;timestamp;temperature;humidity
75164;HTU21D;63746;45.402;37.922;2023-04-01T00:01:34;3.64;68.84
75164;HTU21D;63746;45.402;37.922;2023-04-01T00:04:00;3.65;68.93
75164;HTU21D;63746;45.402;37.922;2023-04-01T00:06:27;3.67;68.97
75164;HTU21D;63746;45.402;37.922;2023-04-01T00:08:53;3.69;69.00
75164;HTU21D;63746;45.402;37.922;2023-04-01T00:11:20;3.70;68.94
75164;HTU21D;63746;45.402;37.922;2023-04-01T00:13:47;3.70;68.97
75164;HTU21D;63746;45.402;37.922;2023-04-01T00:16:13;3.71;68.94
75164;HTU21D;63746;45.402;37.922;2023-04-01T00:18:39;3.71;68.88
75164;HTU21D;63746;45.402;37.922;2023-04-01T00:21:05;3.70;68.87
75164;HTU21D;63746;45.402;37.922;2023-04-01T00:23:32;3.71;68.85
75164;HTU21D;63746;45.402;37.922;2023-04-01T00:26:00;3.70;68.84
75164;HTU21D;63746;45.402;37.922;2023-04-01T00:28:26;3.69;68.85
75164;HTU21D;63746;45.402;37.922;2023-04-01T00:30:52;3.68;68.83
75164;HTU21D;63746;45.402;37.922;2023-04-01T00:33:18;3.65;68.81
75164;HTU21D;63746;45.402;37.922;2023-04-01T00:35:46;3.63;68.77
75164;HTU21D;63746;45.402;37.922;2023-04-01T00:38:12;3.60;68.81
75164;HTU21D;63746;45.402;37.922;2023-04-01T00:40:42;3.61;68.82
75164;HTU21D;63746;45.402;37.922;2023-04-01T00:43:14;3.60;68.90
75164;HTU21D;63746;45.402;37.922;2023-04-01T00:45:42;3.61;68.92
75164;HTU21D;63746;45.402;37.922;2023-04-01T00:48:16;3.62;68.95
75164;HTU21D;63746;45.402;37.922;2023-04-01T00:50:49;3.60;68.88
75164;HTU21D;63746;45.402;37.922;2023-04-01T00:53:18;3.61;68.90
75164;HTU21D;63746;45.402;37.922;2023-04-01T00:56:11;3.60;68.94
75164;HTU21D;63746;45.402;37.922;2023-04-01T00:58:39;3.60;68.84
75164;HTU21D;63746;45.402;37.922;2023-04-01T01:01:08;3.59;68.87
75164;HTU21D;63746;45.402;37.922;2023-04-01T01:03:35;3.58;68.91
75164;HTU21D;63746;45.402;37.922;2023-04-01T01:11:05;3.54;68.81
75164;HTU21D;63746;45.402;37.922;2023-04-01T01:13:44;3.50;68.71
75164;HTU21D;63746;45.402;37.922;2023-04-01T01:16:24;3.46;68.70
75164;HTU21D;63746;45.402;37.922;2023-04-01T01:27:04;3.36;68.84
75164;HTU21D;63746;45.402;37.922;2023-04-01T01:37:42;3.28;68.81
75164;HTU21D;63746;45.402;37.922;2023-04-01T01:40:11;3.26;68.87
75164;HTU21D;63746;45.402;37.922;2023-04-01T01:42:41;3.27;68.94
75164;HTU21D;63746;45.402;37.922;2023-04-01T01:45:10;3.28;68.99
75164;HTU21D;63746;45.402;37.922;2023-04-01T01:47:37;3.28;68.99
75164;HTU21D;63746;45.402;37.922;2023-04-01T01:50:06;3.30;68.98
75164;HTU21D;63746;45.402;37.922;2023-04-01T01:52:32;3.30;68.97
75164;HTU21D;63746;45.402;37.922;2023-04-01T01:54:58;3.31;68.95
75164;HTU21D;63746;45.402;37.922;2023-04-01T01:57:34;3.31;68.94
75164;HTU21D;63746;45.402;37.922;2023-04-01T02:00:10;3.32;68.93
75164;HTU21D;63746;45.402;37.922;2023-04-01T02:02:45;3.33;68.91
75164;HTU21D;63746;45.402;37.922;2023-04-01T02:05:15;3.32;68.85
75164;HTU21D;63746;45.402;37.922;2023-04-01T02:07:46;3.32;68.85
75164;HTU21D;63746;45.402;37.922;2023-04-01T02:10:14;3.32;68.90
75164;HTU21D;63746;45.402;37.922;2023-04-01T02:12:42;3.33;68.87
75164;HTU21D;63746;45.402;37.922;2023-04-01T02:15:11;3.34;69.00
75164;HTU21D;63746;45.402;37.922;2023-04-01T02:17:44;3.30;68.79
75164;HTU21D;63746;45.402;37.922;2023-04-01T02:20:20;3.28;68.75
75164;HTU21D;63746;45.402;37.922;2023-04-01T02:22:53;3.27;68.75
75164;HTU21D;63746;45.402;37.922;2023-04-01T02:25:29;3.24;68.64
75164;HTU21D;63746;45.402;37.922;2023-04-01T02:27:58;3.19;68.57
75164;HTU21D;63746;45.402;37.922;2023-04-01T02:30:27;3.17;68.62
75164;HTU21D;63746;45.402;37.922;2023-04-01T02:32:56;3.16;68.67
75164;HTU21D;63746;45.402;37.922;2023-04-01T02:35:23;3.16;68.82
75164;HTU21D;63746;45.402;37.922;2023-04-01T02:37:51;3.17;68.88
75164;HTU21D;63746;45.402;37.922;2023-04-01T02:40:18;3.16;68.81
75164;HTU21D;63746;45.402;37.922;2023-04-01T02:42:44;3.14;68.83
75164;HTU21D;63746;45.402;37.922;2023-04-01T02:45:12;3.14;68.81
75164;HTU21D;63746;45.402;37.922;2023-04-01T02:47:38;3.14;68.87
75164;HTU21D;63746;45.402;37.922;2023-04-01T02:50:05;3.14;68.87
75164;HTU21D;63746;45.402;37.922;2023-04-01T02:52:32;3.12;68.91
75164;HTU21D;63746;45.402;37.922;2023-04-01T02:55:01;3.13;68.97
75164;HTU21D;63746;45.402;37.922;2023-04-01T02:57:27;3.14;68.97
75164;HTU21D;63746;45.402;37.922;2023-04-01T02:59:54;3.11;68.95
75164;HTU21D;63746;45.402;37.922;2023-04-01T03:02:20;3.10;68.93
75164;HTU21D;63746;45.402;37.922;2023-04-01T03:04:46;3.10;68.87
75164;HTU21D;63746;45.402;37.922;2023-04-01T03:07:13;3.08;68.86
75164;HTU21D;63746;45.402;37.922;2023-04-01T03:09:39;3.04;68.85
75164;HTU21D;63746;45.402;37.922;2023-04-01T03:12:06;3.03;68.91
75164;HTU21D;63746;45.402;37.922;2023-04-01T03:14:41;3.04;69.03
75164;HTU21D;63746;45.402;37.922;2023-04-01T03:17:07;3.02;68.99
75164;HTU21D;63746;45.402;37.922;2023-04-01T03:19:33;3.01;68.99
75164;HTU21D;63746;45.402;37.922;2023-04-01T03:22:04;2.99;68.94
75164;HTU21D;63746;45.402;37.922;2023-04-01T03:24:30;2.98;68.94
75164;HTU21D;63746;45.402;37.922;2023-04-01T03:26:56;2.98;68.97
75164;HTU21D;63746;45.402;37.922;2023-04-01T03:29:22;2.96;68.95
75164;HTU21D;63746;45.402;37.922;2023-04-01T03:31:48;2.97;68.97
75164;HTU21D;63746;45.402;37.922;2023-04-01T03:34:14;2.96;68.98
75164;HTU21D;63746;45.402;37.922;2023-04-01T03:36:41;2.96;69.07
75164;HTU21D;63746;45.402;37.922;2023-04-01T03:39:07;2.97;69.06
75164;HTU21D;63746;45.402;37.922;2023-04-01T03:41:39;2.99;69.07
75164;HTU21D;63746;45.402;37.922;2023-04-01T03:44:06;2.99;69.09
75164;HTU21D;63746;45.402;37.922;2023-04-01T03:46:32;3.01;69.09
75164;HTU21D;63746;45.402;37.922;2023-04-01T03:48:58;3.03;69.16
75164;HTU21D;63746;45.402;37.922;2023-04-01T03:51:24;3.04;69.19
75164;HTU21D;63746;45.402;37.922;2023-04-01T03:53:51;3.08;69.24
75164;HTU21D;63746;45.402;37.922;2023-04-01T03:56:17;3.11;69.36
75164;HTU21D;63746;45.402;37.922;2023-04-01T03:58:43;3.17;69.46
75164;HTU21D;63746;45.402;37.922;2023-04-01T04:01:18;3.24;69.55
75164;HTU21D;63746;45.402;37.922;2023-04-01T04:03:44;3.29;69.58
75164;HTU21D;63746;45.402;37.922;2023-04-01T04:06:13;3.33;69.58
75164;HTU21D;63746;45.402;37.922;2023-04-01T04:08:39;3.38;69.58
75164;HTU21D;63746;45.402;37.922;2023-04-01T04:11:06;3.42;69.65
75164;HTU21D;63746;45.402;37.922;2023-04-01T04:13:35;3.44;69.60
75164;HTU21D;63746;45.402;37.922;2023-04-01T04:16:04;3.49;69.75
75164;HTU21D;63746;45.402;37.922;2023-04-01T04:18:32;3.59;69.87
75164;HTU21D;63746;45.402;37.922;2023-04-01T04:20:58;3.68;69.98
75164;HTU21D;63746;45.402;37.922;2023-04-01T04:23:24;3.78;70.12
75164;HTU21D;63746;45.402;37.922;2023-04-01T04:25:58;3.90;70.19
75164;HTU21D;63746;45.402;37.922;2023-04-01T04:28:27;4.02;70.20
75164;HTU21D;63746;45.402;37.922;2023-04-01T04:30:54;4.14;70.18
75164;HTU21D;63746;45.402;37.922;2023-04-01T04:33:21;4.23;70.16
75164;HTU21D;63746;45.402;37.922;2023-04-01T04:35:48;4.33;70.14
75164;HTU21D;63746;45.402;37.922;2023-04-01T04:38:15;4.44;70.12
75164;HTU21D;63746;45.402;37.922;2023-04-01T04:40:42;4.53;70.13
75164;HTU21D;63746;45.402;37.922;2023-04-01T04:43:11;4.63;70.12
75164;HTU21D;63746;45.402;37.922;2023-04-01T04:45:37;4.74;70.19
75164;HTU21D;63746;45.402;37.922;2023-04-01T04:48:03;4.86;70.19
75164;HTU21D;63746;45.402;37.922;2023-04-01T04:50:30;4.94;70.25
75164;HTU21D;63746;45.402;37.922;2023-04-01T04:52:57;5.08;70.29
75164;HTU21D;63746;45.402;37.922;2023-04-01T04:55:23;5.19;70.18
75164;HTU21D;63746;45.402;37.922;2023-04-01T04:58:00;5.31;70.17
75164;HTU21D;63746;45.402;37.922;2023-04-01T05:00:26;5.43;70.20
75164;HTU21D;63746;45.402;37.922;2023-04-01T05:02:56;5.57;70.24
75164;HTU21D;63746;45.402;37.922;2023-04-01T05:05:22;5.69;70.14
75164;HTU21D;63746;45.402;37.922;2023-04-01T05:07:48;5.82;70.24
75164;HTU21D;63746;45.402;37.922;2023-04-01T05:10:15;5.97;70.46
75164;HTU21D;63746;45.402;37.922;2023-04-01T05:12:41;6.11;70.27
75164;HTU21D;63746;45.402;37.922;2023-04-01T05:15:09;6.24;70.03
75164;HTU21D;63746;45.402;37.922;2023-04-01T05:17:35;6.30;69.81
75164;HTU21D;63746;45.402;37.922;2023-04-01T05:20:03;6.39;69.74
75164;HTU21D;63746;45.402;37.922;2023-04-01T05:22:29;6.48;69.72
75164;HTU21D;63746;45.402;37.922;2023-04-01T05:24:55;6.58;69.72
75164;HTU21D;63746;45.402;37.922;2023-04-01T05:27:22;6.71;69.82
75164;HTU21D;63746;45.402;37.922;2023-04-01T05:29:48;6.86;69.84
75164;HTU21D;63746;45.402;37.922;2023-04-01T05:32:34;7.07;69.87
75164;HTU21D;63746;45.402;37.922;2023-04-01T05:35:00;7.20;69.72
75164;HTU21D;63746;45.402;37.922;2023-04-01T05:37:26;7.34;69.61
75164;HTU21D;63746;45.402;37.922;2023-04-01T05:39:52;7.52;69.58
75164;HTU21D;63746;45.402;37.922;2023-04-01T05:42:18;7.68;69.49
75164;HTU21D;63746;45.402;37.922;2023-04-01T05:44:44;7.83;69.49
75164;HTU21D;63746;45.402;37.922;2023-04-01T05:47:30;7.99;69.29
75164;HTU21D;63746;45.402;37.922;2023-04-01T05:49:56;8.15;69.49
75164;HTU21D;63746;45.402;37.922;2023-04-01T05:52:22;8.32;68.66
75164;HTU21D;63746;45.402;37.922;2023-04-01T05:54:48;8.44;68.58
75164;HTU21D;63746;45.402;37.922;2023-04-01T05:57:14;8.57;68.58
75164;HTU21D;63746;45.402;37.922;2023-04-01T05:59:40;8.70;68.04
75164;HTU21D;63746;45.402;37.922;2023-04-01T06:02:06;8.80;67.78
75164;HTU21D;63746;45.402;37.922;2023-04-01T06:04:36;8.92;68.05
75164;HTU21D;63746;45.402;37.922;2023-04-01T06:07:23;9.05;66.46
75164;HTU21D;63746;45.402;37.922;2023-04-01T06:09:49;9.15;67.04
75164;HTU21D;63746;45.402;37.922;2023-04-01T06:17:40;9.46;66.66
75164;HTU21D;63746;45.402;37.922;2023-04-01T06:49:29;10.54;65.74
75164;HTU21D;63746;45.402;37.922;2023-04-01T06:56:04;10.77;65.55
75164;HTU21D;63746;45.402;37.922;2023-04-01T06:58:53;10.88;66.18
75164;HTU21D;63746;45.402;37.922;2023-04-01T07:02:16;11.00;65.74
75164;HTU21D;63746;45.402;37.922;2023-04-01T07:07:35;11.27;65.40
75164;HTU21D;63746;45.402;37.922;2023-04-01T07:10:11;11.37;63.34
75164;HTU21D;63746;45.402;37.922;2023-04-01T07:13:07;11.47;65.11
75164;HTU21D;63746;45.402;37.922;2023-04-01T07:16:17;11.62;64.59
75164;HTU21D;63746;45.402;37.922;2023-04-01T07:18:52;11.75;64.82
75164;HTU21D;63746;45.402;37.922;2023-04-01T07:21:35;11.88;62.50
75164;HTU21D;63746;45.402;37.922;2023-04-01T07:24:33;12.00;61.75
75164;HTU21D;63746;45.402;37.922;2023-04-01T07:27:10;12.08;64.43
75164;HTU21D;63746;45.402;37.922;2023-04-01T07:29:37;12.19;64.01
75164;HTU21D;63746;45.402;37.922;2023-04-01T07:35:07;12.38;63.76
75164;HTU21D;63746;45.402;37.922;2023-04-01T07:37:40;12.48;61.38
75164;HTU21D;63746;45.402;37.922;2023-04-01T07:40:20;12.57;64.31
75164;HTU21D;63746;45.402;37.922;2023-04-01T07:48:57;12.91;62.53
75164;HTU21D;63746;45.402;37.922;2023-04-01T07:56:54;13.12;64.29
75164;HTU21D;63746;45.402;37.922;2023-04-01T08:05:28;13.26;63.07
75164;HTU21D;63746;45.402;37.922;2023-04-01T08:17:19;13.53;63.18
75164;HTU21D;63746;45.402;37.922;2023-04-01T08:23:16;13.68;61.12
75164;HTU21D;63746;45.402;37.922;2023-04-01T08:26:11;13.66;60.18
75164;HTU21D;63746;45.402;37.922;2023-04-01T08:28:54;13.69;61.21
75164;HTU21D;63746;45.402;37.922;2023-04-01T08:31:37;13.74;61.56
75164;HTU21D;63746;45.402;37.922;2023-04-01T08:34:12;13.84;63.15
75164;HTU21D;63746;45.402;37.922;2023-04-01T08:36:43;13.92;63.76
75164;HTU21D;63746;45.402;37.922;2023-04-01T08:39:20;13.99;64.05
75164;HTU21D;63746;45.402;37.922;2023-04-01T08:53:43;14.29;59.77
75164;HTU21D;63746;45.402;37.922;2023-04-01T08:56:23;14.30;61.34
75164;HTU21D;63746;45.402;37.922;2023-04-01T09:01:38;14.32;62.13
75164;HTU21D;63746;45.402;37.922;2023-04-01T09:15:16;14.38;63.04
75164;HTU21D;63746;45.402;37.922;2023-04-01T09:28:49;14.60;62.95
75164;HTU21D;63746;45.402;37.922;2023-04-01T09:31:31;14.66;63.02
75164;HTU21D;63746;45.402;37.922;2023-04-01T09:37:25;14.66;56.74
75164;HTU21D;63746;45.402;37.922;2023-04-01T09:54:04;14.70;61.36
75164;HTU21D;63746;45.402;37.922;2023-04-01T10:27:24;15.18;61.99
75164;HTU21D;63746;45.402;37.922;2023-04-01T10:42:27;15.18;51.52
75164;HTU21D;63746;45.402;37.922;2023-04-01T10:44:48;15.19;59.67
75164;HTU21D;63746;45.402;37.922;2023-04-01T10:53:31;15.42;58.76
75164;HTU21D;63746;45.402;37.922;2023-04-01T11:00:18;15.42;56.23
75164;HTU21D;63746;45.402;37.922;2023-04-01T11:02:56;15.41;59.83
75164;HTU21D;63746;45.402;37.922;2023-04-01T11:06:24;15.40;56.71
75164;HTU21D;63746;45.402;37.922;2023-04-01T11:26:04;14.87;53.07
75164;HTU21D;63746;45.402;37.922;2023-04-01T11:29:35;14.75;59.83
75164;HTU21D;63746;45.402;37.922;2023-04-01T11:32:57;14.67;58.28
75164;HTU21D;63746;45.402;37.922;2023-04-01T11:35:52;14.58;59.86
75164;HTU21D;63746;45.402;37.922;2023-04-01T11:41:45;14.52;61.20
75164;HTU21D;63746;45.402;37.922;2023-04-01T11:44:34;14.49;61.32
75164;HTU21D;63746;45.402;37.922;2023-04-01T12:14:37;14.99;60.90
75164;HTU21D;63746;45.402;37.922;2023-04-01T12:19:47;15.02;61.54
75164;HTU21D;63746;45.402;37.922;2023-04-01T12:22:34;15.04;59.23
75164;HTU21D;63746;45.402;37.922;2023-04-01T12:47:40;15.01;55.97
75164;HTU21D;63746;45.402;37.922;2023-04-01T12:53:19;15.00;61.20
75164;HTU21D;63746;45.402;37.922;2023-04-01T12:55:51;15.00;60.56
75164;HTU21D;63746;45.402;37.922;2023-04-01T13:03:44;14.99;55.46
75164;HTU21D;63746;45.402;37.922;2023-04-01T13:25:39;14.63;59.22
75164;HTU21D;63746;45.402;37.922;2023-04-01T13:28:28;14.59;57.81
75164;HTU21D;63746;45.402;37.922;2023-04-01T13:31:01;14.56;61.09
75164;HTU21D;63746;45.402;37.922;2023-04-01T13:44:07;14.42;61.82
75164;HTU21D;63746;45.402;37.922;2023-04-01T13:49:57;14.34;59.83
75164;HTU21D;63746;45.402;37.922;2023-04-01T14:03:42;14.09;55.41
75164;HTU21D;63746;45.402;37.922;2023-04-01T14:11:54;13.85;60.96
75164;HTU21D;63746;45.402;37.922;2023-04-01T14:34:00;13.21;54.65
75164;HTU21D;63746;45.402;37.922;2023-04-01T14:39:38;13.04;58.40
75164;HTU21D;63746;45.402;37.922;2023-04-01T14:45:25;12.84;52.14
75164;HTU21D;63746;45.402;37.922;2023-04-01T14:50:50;12.67;53.59
75164;HTU21D;63746;45.402;37.922;2023-04-01T14:55:54;12.57;57.24
75164;HTU21D;63746;45.402;37.922;2023-04-01T14:58:22;12.50;59.86
75164;HTU21D;63746;45.402;37.922;2023-04-01T15:19:20;13.00;61.47
75164;HTU21D;63746;45.402;37.922;2023-04-01T15:25:43;12.66;61.44
75164;HTU21D;63746;45.402;37.922;2023-04-01T15:27:58;12.50;61.81
75164;HTU21D;63746;45.402;37.922;2023-04-01T15:30:39;12.37;62.24
75164;HTU21D;63746;45.402;37.922;2023-04-01T15:36:24;12.13;61.86
75164;HTU21D;63746;45.402;37.922;2023-04-01T15:39:10;12.00;62.74
75164;HTU21D;63746;45.402;37.922;2023-04-01T15:42:04;11.89;62.88
75164;HTU21D;63746;45.402;37.922;2023-04-01T15:50:50;11.60;62.32
75164;HTU21D;63746;45.402;37.922;2023-04-01T16:01:07;11.29;63.33
75164;HTU21D;63746;45.402;37.922;2023-04-01T16:06:22;11.14;62.88
75164;HTU21D;63746;45.402;37.922;2023-04-01T16:19:51;10.81;62.78
75164;HTU21D;63746;45.402;37.922;2023-04-01T16:22:58;10.72;62.63
75164;HTU21D;63746;45.402;37.922;2023-04-01T16:34:19;10.44;63.21
75164;HTU21D;63746;45.402;37.922;2023-04-01T16:36:52;10.40;63.53
75164;HTU21D;63746;45.402;37.922;2023-04-01T16:39:41;10.35;63.04
75164;HTU21D;63746;45.402;37.922;2023-04-01T16:47:38;10.25;63.82
75164;HTU21D;63746;45.402;37.922;2023-04-01T16:50:22;10.21;63.53
75164;HTU21D;63746;45.402;37.922;2023-04-01T16:55:50;10.19;63.55
75164;HTU21D;63746;45.402;37.922;2023-04-01T16:58:25;10.18;63.98
75164;HTU21D;63746;45.402;37.922;2023-04-01T17:00:58;10.19;63.98
75164;HTU21D;63746;45.402;37.922;2023-04-01T17:03:40;10.20;63.69
75164;HTU21D;63746;45.402;37.922;2023-04-01T17:11:59;10.06;63.40
75164;HTU21D;63746;45.402;37.922;2023-04-01T17:17:29;9.96;63.29
75164;HTU21D;63746;45.402;37.922;2023-04-01T17:20:31;9.93;63.24
75164;HTU21D;63746;45.402;37.922;2023-04-01T17:26:36;9.89;63.80
75164;HTU21D;63746;45.402;37.922;2023-04-01T17:31:18;9.85;63.88
75164;HTU21D;63746;45.402;37.922;2023-04-01T17:52:48;9.55;63.95
75164;HTU21D;63746;45.402;37.922;2023-04-01T17:55:44;9.55;63.84
75164;HTU21D;63746;45.402;37.922;2023-04-01T18:01:04;9.50;63.82
75164;HTU21D;63746;45.402;37.922;2023-04-01T18:03:54;9.47;63.95
75164;HTU21D;63746;45.402;37.922;2023-04-01T18:06:55;9.44;63.85
75164;HTU21D;63746;45.402;37.922;2023-04-01T18:20:33;9.36;63.98
75164;HTU21D;63746;45.402;37.922;2023-04-01T18:23:04;9.35;64.05
75164;HTU21D;63746;45.402;37.922;2023-04-01T18:25:43;9.33;63.91
75164;HTU21D;63746;45.402;37.922;2023-04-01T18:28:39;9.32;63.55
75164;HTU21D;63746;45.402;37.922;2023-04-01T18:31:17;9.31;63.82
75164;HTU21D;63746;45.402;37.922;2023-04-01T18:34:07;9.29;64.10
75164;HTU21D;63746;45.402;37.922;2023-04-01T18:36:48;9.31;63.96
75164;HTU21D;63746;45.402;37.922;2023-04-01T18:39:39;9.31;64.23
75164;HTU21D;63746;45.402;37.922;2023-04-01T18:45:32;9.32;64.13
75164;HTU21D;63746;45.402;37.922;2023-04-01T18:50:56;9.31;64.10
75164;HTU21D;63746;45.402;37.922;2023-04-01T18:53:39;9.30;63.96
75164;HTU21D;63746;45.402;37.922;2023-04-01T18:56:11;9.26;64.12
75164;HTU21D;63746;45.402;37.922;2023-04-01T19:01:31;9.22;64.14
75164;HTU21D;63746;45.402;37.922;2023-04-01T19:06:41;9.20;64.27
75164;HTU21D;63746;45.402;37.922;2023-04-01T19:09:16;9.18;63.48
75164;HTU21D;63746;45.402;37.922;2023-04-01T19:15:01;9.15;63.99
75164;HTU21D;63746;45.402;37.922;2023-04-01T19:20:32;9.14;64.35
75164;HTU21D;63746;45.402;37.922;2023-04-01T19:25:55;9.19;64.60
75164;HTU21D;63746;45.402;37.922;2023-04-01T19:37:01;9.31;64.29
75164;HTU21D;63746;45.402;37.922;2023-04-01T19:39:41;9.32;64.45
75164;HTU21D;63746;45.402;37.922;2023-04-01T19:52:49;9.33;64.37
75164;HTU21D;63746;45.402;37.922;2023-04-01T19:55:44;9.31;64.32
75164;HTU21D;63746;45.402;37.922;2023-04-01T20:00:54;9.30;64.34
75164;HTU21D;63746;45.402;37.922;2023-04-01T20:06:15;9.25;64.29
75164;HTU21D;63746;45.402;37.922;2023-04-01T20:09:08;9.23;64.12
75164;HTU21D;63746;45.402;37.922;2023-04-01T20:17:15;9.15;64.40
75164;HTU21D;63746;45.402;37.922;2023-04-01T20:20:30;9.12;64.56
75164;HTU21D;63746;45.402;37.922;2023-04-01T20:25:19;9.12;64.54
75164;HTU21D;63746;45.402;37.922;2023-04-01T20:28:12;9.11;64.35
75164;HTU21D;63746;45.402;37.922;2023-04-01T20:31:11;9.09;64.31
75164;HTU21D;63746;45.402;37.922;2023-04-01T20:36:42;9.03;64.56
75164;HTU21D;63746;45.402;37.922;2023-04-01T20:39:27;9.00;64.56
75164;HTU21D;63746;45.402;37.922;2023-04-01T20:42:14;8.98;64.52
75164;HTU21D;63746;45.402;37.922;2023-04-01T20:50:30;8.91;64.56
75164;HTU21D;63746;45.402;37.922;2023-04-01T20:53:05;8.85;64.47
75164;HTU21D;63746;45.402;37.922;2023-04-01T20:58:19;8.74;64.57
75164;HTU21D;63746;45.402;37.922;2023-04-01T21:00:54;8.68;64.62
75164;HTU21D;63746;45.402;37.922;2023-04-01T21:07:11;8.59;64.59
75164;HTU21D;63746;45.402;37.922;2023-04-01T21:15:42;8.44;64.57
75164;HTU21D;63746;45.402;37.922;2023-04-01T21:44:56;8.26;64.92
75164;HTU21D;63746;45.402;37.922;2023-04-01T21:50:47;8.24;64.73
75164;HTU21D;63746;45.402;37.922;2023-04-01T21:53:55;8.23;64.70
75164;HTU21D;63746;45.402;37.922;2023-04-01T21:59:39;8.17;64.85
75164;HTU21D;63746;45.402;37.922;2023-04-01T22:11:11;8.07;64.79
75164;HTU21D;63746;45.402;37.922;2023-04-01T22:13:22;8.05;64.79
75164;HTU21D;63746;45.402;37.922;2023-04-01T22:16:30;8.03;64.53
75164;HTU21D;63746;45.402;37.922;2023-04-01T22:19:09;7.98;64.15
75164;HTU21D;63746;45.402;37.922;2023-04-01T22:21:45;7.92;64.59
75164;HTU21D;63746;45.402;37.922;2023-04-01T22:24:27;7.88;64.70
75164;HTU21D;63746;45.402;37.922;2023-04-01T22:32:23;7.81;64.81
75164;HTU21D;63746;45.402;37.922;2023-04-01T22:38:11;7.76;64.64
75164;HTU21D;63746;45.402;37.922;2023-04-01T22:43:44;7.68;64.75
75164;HTU21D;63746;45.402;37.922;2023-04-01T22:54:37;7.45;64.30
75164;HTU21D;63746;45.402;37.922;2023-04-01T22:57:14;7.37;64.63
75164;HTU21D;63746;45.402;37.922;2023-04-01T22:59:48;7.32;64.78
75164;HTU21D;63746;45.402;37.922;2023-04-01T23:02:35;7.29;64.85
75164;HTU21D;63746;45.402;37.922;2023-04-01T23:05:04;7.26;64.95
75164;HTU21D;63746;45.402;37.922;2023-04-01T23:13:03;7.18;65.13
75164;HTU21D;63746;45.402;37.922;2023-04-01T23:15:30;7.18;65.14
75164;HTU21D;63746;45.402;37.922;2023-04-01T23:21:15;7.13;64.87
75164;HTU21D;63746;45.402;37.922;2023-04-01T23:29:17;6.91;64.88
75164;HTU21D;63746;45.402;37.922;2023-04-01T23:31:48;6.86;64.90
75164;HTU21D;63746;45.402;37.922;2023-04-01T23:34:28;6.81;65.01
75164;HTU21D;63746;45.402;37.922;2023-04-01T23:37:00;6.74;65.04
75164;HTU21D;63746;45.402;37.922;2023-04-01T23:39:35;6.71;65.01
75164;HTU21D;63746;45.402;37.922;2023-04-01T23:42:18;6.66;64.92
75164;HTU21D;63746;45.402;37.922;2023-04-01T23:44:48;6.63;65.19
75164;HTU21D;63746;45.402;37.922;2023-04-01T23:47:34;6.58;65.04
75164;HTU21D;63746;45.402;37.922;2023-04-01T23:50:17;6.56;65.06
75164;HTU21D;63746;45.402;37.922;2023-04-01T23:52:58;6.53;65.24
75164;HTU21D;63746;45.402;37.922;2023-04-01T23:55:31;6.46;65.27
